Time;durP1;ratioP1;P1;durP2;ratioP2;P2;SDS_P1;SDS_P2;PMS_P1;PMS_P2;Temp;Humidity;BMP_temperature;BMP_pressure;BME280_temperature;BME280_humidity;BME280_pressure;Samples;Min_cycle;Max_cycle;Signal;HPM_P1;HPM_P2
2022/01/15 00:01:46;;;;;;;20.13;6.00;;;;;;;0.93;84.73;99923.86;1792872;80;20965;-38
2022/01/15 00:04:12;;;;;;;20.92;5.95;;;;;;;0.91;84.85;99918.68;1792946;79;20994;-38
2022/01/15 00:06:38;;;;;;;21.02;4.85;;;;;;;0.93;84.89;99921.27;1792662;79;20966;-38
2022/01/15 00:09:05;;;;;;;27.07;5.55;;;;;;;0.90;84.84;99932.48;1792627;80;21470;-39
2022/01/15 00:11:31;;;;;;;19.95;6.03;;;;;;;0.86;84.91;99932.52;1792752;80;20989;-38
2022/01/15 00:14:11;;;;;;;18.57;4.95;;;;;;;0.83;85.02;99928.20;1792676;80;20969;-38
2022/01/15 00:16:32;;;;;;;17.07;5.10;;;;;;;0.88;85.00;99929.48;1789763;80;20977;-38
2022/01/15 00:19:06;;;;;;;;;;;;;;;0.86;84.92;99936.41;1793896;80;21471;-37
2022/01/15 00:21:29;;;;;;;18.27;5.80;;;;;;;0.86;84.84;99938.55;1792262;79;20096;-38
2022/01/15 00:23:55;;;;;;;22.42;5.30;;;;;;;0.82;85.05;99946.33;1792688;80;21521;-38
2022/01/15 00:26:21;;;;;;;21.35;5.92;;;;;;;0.87;85.05;99939.41;1792627;80;20986;-38
2022/01/15 00:28:47;;;;;;;29.57;6.95;;;;;;;0.84;84.97;99934.27;1792630;80;20989;-38
2022/01/15 00:31:13;;;;;;;25.60;6.60;;;;;;;0.80;84.84;99932.53;1792644;80;20954;-38
2022/01/15 00:33:39;;;;;;;24.87;7.62;;;;;;;0.74;85.19;99928.25;1792644;80;21057;-38
2022/01/15 00:36:05;;;;;;;31.90;8.15;;;;;;;0.74;85.18;99927.81;1792597;79;20989;-38
2022/01/15 00:38:31;;;;;;;34.15;7.97;;;;;;;0.72;85.17;99932.14;1792565;79;21417;-37
2022/01/15 00:40:57;;;;;;;28.42;8.10;;;;;;;0.73;85.21;99934.31;1792628;80;20986;-37
2022/01/15 00:43:22;;;;;;;28.25;7.15;;;;;;;0.68;85.44;99926.56;1792581;79;21017;-38
2022/01/15 00:45:49;;;;;;;23.20;6.00;;;;;;;0.62;85.46;99934.37;1792675;80;20989;-37
2022/01/15 00:48:15;;;;;;;19.07;5.95;;;;;;;0.61;85.43;99927.45;1786595;79;21013;-37
2022/01/15 00:50:42;;;;;;;21.70;6.60;;;;;;;0.54;85.74;99921.88;1778738;80;21110;-38
2022/01/15 00:53:08;;;;;;;;;;;;;;;0.55;85.74;99922.32;1781511;81;20967;-37
2022/01/15 00:55:34;;;;;;;27.37;6.17;;;;;;;0.49;85.76;99923.62;1778807;81;20113;-37
2022/01/15 00:58:00;;;;;;;27.82;7.33;;;;;;;0.45;86.12;99921.92;1778839;80;21491;-38
2022/01/15 01:00:27;;;;;;;25.12;6.90;;;;;;;0.43;86.09;99924.95;1778765;80;20994;-38
2022/01/15 01:02:54;;;;;;;24.00;6.95;;;;;;;0.42;86.27;99924.51;1778920;81;20989;-38
2022/01/15 01:05:21;;;;;;;29.17;7.77;;;;;;;0.36;86.12;99924.98;1778987;80;20970;-38
2022/01/15 01:07:47;;;;;;;26.75;7.30;;;;;;;0.37;86.17;99929.72;1778910;81;21542;-38
2022/01/15 01:23:34;;;;;;;15.80;4.65;;;;;;;0.32;86.26;99936.19;1778715;80;21476;-38
2022/01/15 01:26:10;;;;;;;20.40;5.22;;;;;;;0.25;86.39;99933.19;1778877;80;21002;-37
2022/01/15 01:28:33;;;;;;;27.67;5.92;;;;;;;0.22;86.56;99937.09;1754405;81;21026;-39
2022/01/15 01:33:34;;;;;;;23.22;5.15;;;;;;;0.26;86.52;99932.34;1747442;81;20186;-38
2022/01/15 01:36:10;;;;;;;;;;;;;;;0.14;86.68;99933.22;1749389;82;21021;-37
2022/01/15 01:38:35;;;;;;;28.92;5.35;;;;;;;0.14;86.88;99931.92;1747488;81;20111;-38
2022/01/15 01:40:59;;;;;;;;;;;;;;;0.15;86.55;99925.05;1749283;81;21060;-37
2022/01/15 01:46:11;;;;;;;24.35;5.37;;;;;;;0.14;86.60;99932.37;1747507;82;21060;-38
2022/01/15 01:48:18;;;;;;;18.60;5.22;;;;;;;0.14;86.41;99928.48;1743235;82;21002;-38
2022/01/15 01:50:44;;;;;;;23.07;5.60;;;;;;;0.07;86.63;99927.63;1747491;82;21079;-38
2022/01/15 01:53:10;;;;;;;23.50;6.35;;;;;;;0.09;86.64;99921.17;1747500;81;21049;-38
2022/01/15 01:55:37;;;;;;;23.57;6.12;;;;;;;0.08;86.75;99933.69;1747490;81;21010;-37
2022/01/15 01:58:03;;;;;;;32.80;5.92;;;;;;;0.12;86.62;99922.46;1747410;82;21472;-37
2022/01/15 02:00:31;;;;;;;24.70;4.83;;;;;;;0.10;86.58;99920.31;1747784;81;21079;-37
2022/01/15 02:02:57;;;;;;;23.38;5.10;;;;;;;0.09;86.54;99919.47;1747604;82;20970;-38
2022/01/15 02:05:24;;;;;;;17.97;5.00;;;;;;;0.08;86.43;99922.05;1747881;82;21562;-37
2022/01/15 02:07:50;;;;;;;27.45;6.45;;;;;;;0.03;86.68;99927.66;1747739;82;20998;-37
2022/01/15 02:10:20;;;;;;;23.40;5.33;;;;;;;0.03;86.50;99922.05;1758927;81;21045;-38
2022/01/15 02:12:50;;;;;;;16.75;5.30;;;;;;;0.05;86.38;99919.46;1778845;80;20986;-38
2022/01/15 02:15:21;;;;;;;22.55;6.37;;;;;;;0.02;86.56;99918.16;1778810;80;21551;-38
2022/01/15 02:17:48;;;;;;;26.00;5.35;;;;;;;0.05;86.48;99919.46;1778854;81;21436;-38
2022/01/15 02:25:58;;;;;;;29.02;5.20;;;;;;;0.01;86.46;99920.34;1778712;81;21440;-38
2022/01/15 02:28:28;;;;;;;15.70;4.87;;;;;;;-0.05;86.36;99928.53;1778720;81;20966;-38
2022/01/15 02:31:01;;;;;;;17.00;5.05;;;;;;;-0.04;86.40;99926.80;1778481;81;20982;-38
2022/01/15 02:33:28;;;;;;;22.37;5.58;;;;;;;-0.03;86.47;99925.95;1777909;80;20958;-38
2022/01/15 02:35:54;;;;;;;25.05;5.37;;;;;;;-0.08;86.54;99923.36;1778939;81;21569;-38
2022/01/15 02:38:21;;;;;;;23.37;5.70;;;;;;;-0.12;86.31;99935.02;1779019;80;21022;-39
2022/01/15 02:43:21;;;;;;;19.48;4.72;;;;;;;-0.07;86.16;99928.97;1653773;84;21424;-38
2022/01/15 02:45:55;;;;;;;18.23;4.92;;;;;;;-0.09;86.10;99929.41;1685596;85;21118;-38
2022/01/15 02:48:19;;;;;;;22.07;4.62;;;;;;;-0.10;86.18;99938.02;1704042;84;20960;-38
2022/01/15 02:50:46;;;;;;;18.52;4.45;;;;;;;-0.09;86.02;99934.99;1704789;83;21003;-38
2022/01/15 02:53:18;;;;;;;18.23;4.60;;;;;;;-0.09;86.01;99924.65;1704918;84;21001;-38
2022/01/15 02:55:47;;;;;;;19.45;5.28;;;;;;;-0.20;86.04;99931.13;1704681;83;21516;-38
2022/01/15 02:58:14;;;;;;;15.38;4.42;;;;;;;-0.14;86.07;99928.55;1704693;84;21003;-38
2022/01/15 03:00:40;;;;;;;17.62;4.67;;;;;;;-0.11;85.96;99929.85;1704808;84;21488;-38
2022/01/15 03:03:06;;;;;;;17.80;5.20;;;;;;;-0.11;85.83;99927.27;1704561;84;21007;-37
2022/01/15 03:05:32;;;;;;;18.48;4.20;;;;;;;-0.12;85.86;99928.11;1704732;84;20999;-38
2022/01/15 03:07:58;;;;;;;19.73;4.45;;;;;;;-0.07;85.79;99926.39;1704699;83;21481;-38
2022/01/15 03:10:24;;;;;;;16.05;4.45;;;;;;;-0.10;85.67;99922.50;1704651;83;21496;-38
2022/01/15 03:12:51;;;;;;;16.75;4.58;;;;;;;-0.18;85.73;99922.97;1704689;84;21039;-39
2022/01/15 03:15:19;;;;;;;14.68;4.40;;;;;;;-0.13;85.75;99925.09;1704770;84;21007;-38
2022/01/15 03:17:47;;;;;;;22.73;4.95;;;;;;;-0.13;85.69;99934.13;1704639;84;21003;-39
2022/01/15 03:20:15;;;;;;;20.40;4.95;;;;;;;-0.15;85.72;99933.28;1704787;84;21007;-39
2022/01/15 03:22:41;;;;;;;22.60;5.37;;;;;;;-0.18;85.70;99946.23;1704610;83;20964;-39
2022/01/15 03:25:09;;;;;;;20.15;5.90;;;;;;;-0.23;85.72;99943.63;1704616;84;21004;-39
2022/01/15 03:27:35;;;;;;;18.05;4.72;;;;;;;-0.18;85.84;99942.35;1704753;84;21038;-38
2022/01/15 03:30:01;;;;;;;16.10;4.10;;;;;;;-0.17;85.70;99945.34;1704585;84;21346;-39
2022/01/15 03:32:27;;;;;;;12.33;4.10;;;;;;;-0.14;85.74;99931.14;1704640;84;20995;-38
2022/01/15 03:34:52;;;;;;;22.58;4.72;;;;;;;-0.15;85.61;99932.42;1704608;84;21004;-39
2022/01/15 03:37:18;;;;;;;20.62;4.85;;;;;;;-0.18;85.62;99923.38;1704640;84;21409;-38
2022/01/15 03:39:45;;;;;;;16.80;4.15;;;;;;;-0.21;85.58;99931.56;1704661;84;20960;-39
2022/01/15 03:42:12;;;;;;;21.45;4.55;;;;;;;-0.20;85.68;99929.83;1717508;82;21027;-38
2022/01/15 03:44:43;;;;;;;25.03;5.37;;;;;;;-0.26;85.63;99933.29;1739559;82;21500;-39
2022/01/15 03:47:10;;;;;;;23.18;4.83;;;;;;;-0.26;85.80;99933.73;1739738;82;20976;-39
2022/01/15 03:49:37;;;;;;;18.82;4.30;;;;;;;-0.26;85.78;99932.44;1739965;82;21007;-39
2022/01/15 03:52:05;;;;;;;16.77;3.87;;;;;;;-0.26;85.78;99931.14;1740044;82;21052;-39
2022/01/15 03:54:31;;;;;;;20.05;5.03;;;;;;;-0.33;85.86;99934.16;1739750;82;20980;-39
2022/01/15 03:56:56;;;;;;;19.95;4.33;;;;;;;-0.38;86.15;99937.20;1739845;82;21520;-39
2022/01/15 03:59:22;;;;;;;18.65;4.78;;;;;;;-0.37;86.03;99938.05;1739723;82;20983;-38
2022/01/15 04:01:49;;;;;;;23.30;4.40;;;;;;;-0.37;86.03;99938.05;1739755;82;20994;-39
2022/01/15 04:04:16;;;;;;;14.78;3.80;;;;;;;-0.36;86.48;99946.22;1740001;82;20994;-39
2022/01/15 04:06:41;;;;;;;17.30;4.50;;;;;;;-0.35;86.32;99947.95;1740015;82;21007;-38
2022/01/15 04:09:09;;;;;;;20.57;4.28;;;;;;;-0.42;86.60;99946.67;1739787;82;21003;-39
2022/01/15 04:11:35;;;;;;;18.85;4.53;;;;;;;-0.41;86.91;99947.09;1739884;82;21270;-39
2022/01/15 04:14:02;;;;;;;21.17;5.53;;;;;;;-0.40;86.78;99956.58;1739695;82;21036;-40
2022/01/15 04:16:29;;;;;;;21.27;4.55;;;;;;;-0.38;86.69;99952.70;1739850;82;20976;-39
2022/01/15 04:18:57;;;;;;;19.70;4.85;;;;;;;-0.37;86.75;99956.99;1739938;82;21500;-37
2022/01/15 04:21:23;;;;;;;24.63;4.78;;;;;;;-0.37;86.72;99956.14;1738824;82;21488;-38
2022/01/15 04:23:50;;;;;;;23.05;5.15;;;;;;;-0.38;86.73;99951.41;1739700;82;20976;-39
2022/01/15 04:26:18;;;;;;;20.23;4.40;;;;;;;-0.38;86.80;99952.70;1739982;82;21027;-39
2022/01/15 04:28:44;;;;;;;16.25;4.08;;;;;;;-0.42;86.77;99953.55;1739675;82;20995;-38
2022/01/15 04:31:10;;;;;;;19.55;4.25;;;;;;;-0.43;86.89;99953.98;1739943;82;21497;-39
2022/01/15 04:33:38;;;;;;;17.10;4.22;;;;;;;-0.45;86.71;99963.46;1739733;82;21034;-39
2022/01/15 04:36:07;;;;;;;16.75;4.67;;;;;;;-0.49;86.84;99970.78;1739738;82;21023;-39
2022/01/15 04:38:38;;;;;;;12.35;4.17;;;;;;;-0.54;87.37;99976.38;1739705;82;20995;-39
2022/01/15 04:41:08;;;;;;;25.57;4.92;;;;;;;-0.54;87.64;99975.09;1739837;82;21814;-39
2022/01/15 04:43:34;;;;;;;27.93;4.92;;;;;;;-0.58;87.74;99975.95;1735705;82;21040;-40
2022/01/15 04:46:01;;;;;;;18.40;4.10;;;;;;;-0.60;87.90;99973.77;1735034;83;21047;-37
2022/01/15 04:48:27;;;;;;;25.10;5.40;;;;;;;-0.61;88.11;99975.94;1735003;83;20999;-38
2022/01/15 04:50:54;;;;;;;20.30;4.85;;;;;;;-0.58;88.05;99973.37;1735129;83;21492;-38
2022/01/15 04:53:20;;;;;;;16.93;4.62;;;;;;;-0.57;87.82;99974.22;1735245;82;20980;-38
2022/01/15 04:55:46;;;;;;;18.95;4.85;;;;;;;-0.57;87.83;99975.52;1735222;83;21096;-38
2022/01/15 04:58:12;;;;;;;21.73;5.40;;;;;;;-0.63;87.96;99976.38;1734993;82;20972;-39
2022/01/15 05:00:38;;;;;;;20.62;5.17;;;;;;;-0.65;87.91;99965.18;1735035;82;21030;-39
2022/01/15 05:03:04;;;;;;;20.92;4.17;;;;;;;-0.72;88.14;99959.57;1734946;83;20998;-39
2022/01/15 05:05:31;;;;;;;26.42;5.08;;;;;;;-0.73;88.34;99959.98;1734971;82;20979;-38
2022/01/15 05:07:57;;;;;;;21.77;6.05;;;;;;;-0.75;88.77;99960.84;1735191;82;21826;-39
2022/01/15 05:10:28;;;;;;;18.98;5.08;;;;;;;-0.73;88.46;99959.12;1734980;83;21491;-39
2022/01/15 05:13:02;;;;;;;21.82;5.50;;;;;;;-0.72;88.61;99960.42;1734910;82;20987;-39
2022/01/15 05:15:23;;;;;;;26.37;5.15;;;;;;;-0.78;88.92;99959.98;1733417;82;20948;-38
2022/01/15 05:17:51;;;;;;;20.12;4.78;;;;;;;-0.75;89.02;99960.84;1734984;82;21007;-38
2022/01/15 05:20:18;;;;;;;25.72;6.03;;;;;;;-0.78;89.39;99970.32;1734982;82;20968;-39
2022/01/15 05:22:45;;;;;;;27.32;5.85;;;;;;;-0.84;89.46;99966.85;1735130;82;20995;-39
2022/01/15 05:25:16;;;;;;;21.02;6.70;;;;;;;-0.86;89.67;99965.55;1735127;82;20990;-38
2022/01/15 05:27:46;;;;;;;27.48;6.05;;;;;;;-0.80;89.47;99966.88;1734976;83;21487;-38
2022/01/15 05:30:13;;;;;;;23.65;5.35;;;;;;;-0.83;89.36;99969.45;1734968;83;20964;-39
2022/01/15 05:32:40;;;;;;;26.05;5.33;;;;;;;-0.84;89.51;99969.00;1735096;82;20999;-39
2022/01/15 05:35:07;;;;;;;25.80;5.08;;;;;;;-0.81;89.33;99973.33;1734931;82;20998;-38
2022/01/15 05:37:33;;;;;;;22.13;5.50;;;;;;;-0.83;89.44;99977.19;1680925;84;21501;-38
2022/01/15 05:39:58;;;;;;;23.60;5.03;;;;;;;-0.80;89.47;99975.03;1667768;86;22244;-39
2022/01/15 05:42:24;;;;;;;21.80;6.05;;;;;;;-0.80;89.42;99984.95;1734900;82;21028;-39
2022/01/15 05:44:50;;;;;;;22.10;5.40;;;;;;;-0.81;89.43;99982.36;1735001;82;21023;-38
2022/01/15 05:47:16;;;;;;;16.95;5.12;;;;;;;-0.75;89.22;99985.38;1734933;82;21072;-38
2022/01/15 05:49:41;;;;;;;22.37;6.37;;;;;;;-0.75;89.31;99997.86;1734925;82;21528;-38
2022/01/15 05:52:07;;;;;;;27.87;6.65;;;;;;;-0.75;89.33;99991.84;1734921;82;21019;-38
2022/01/15 05:54:33;;;;;;;26.23;5.42;;;;;;;-0.76;89.12;99998.73;1734946;82;20976;-39
2022/01/15 05:56:59;;;;;;;21.42;5.92;;;;;;;-0.74;89.26;99996.16;1734910;83;20996;-39
2022/01/15 05:59:25;;;;;;;20.08;5.28;;;;;;;-0.75;89.47;100001.73;1734952;82;21008;-39
2022/01/15 06:01:51;;;;;;;20.50;5.58;;;;;;;-0.75;89.55;100004.75;1734970;82;20987;-39
2022/01/15 06:04:17;;;;;;;20.80;5.53;;;;;;;-0.75;89.49;100000.44;1734896;83;20988;-39
2022/01/15 06:06:43;;;;;;;23.52;6.42;;;;;;;-0.72;89.47;100002.19;1734981;83;21035;-39
2022/01/15 06:09:08;;;;;;;18.07;5.22;;;;;;;-0.72;89.36;100006.06;1734964;82;21509;-38
2022/01/15 06:11:35;;;;;;;25.55;5.95;;;;;;;-0.69;89.17;100000.88;1734964;83;20995;-38
2022/01/15 06:14:01;;;;;;;22.17;6.37;;;;;;;-0.74;88.99;100006.49;1735031;83;20995;-39
2022/01/15 06:16:27;;;;;;;25.48;6.20;;;;;;;-0.74;89.13;100009.08;1735103;82;21507;-39
2022/01/15 06:18:53;;;;;;;25.37;6.00;;;;;;;-0.78;89.28;100014.66;1734973;82;20991;-39
2022/01/15 06:21:19;;;;;;;20.08;5.62;;;;;;;-0.72;89.28;100018.98;1734948;82;20991;-38
2022/01/15 06:23:45;;;;;;;22.25;5.60;;;;;;;-0.72;89.28;100018.98;1735097;82;20973;-39
2022/01/15 06:26:11;;;;;;;24.60;6.17;;;;;;;-0.81;89.12;100019.38;1734929;82;20979;-37
2022/01/15 06:28:37;;;;;;;20.40;5.67;;;;;;;-0.84;89.26;100016.77;1734922;83;21003;-37
2022/01/15 06:31:03;;;;;;;26.30;5.95;;;;;;;-0.82;89.40;100022.83;1734919;82;21042;-37
2022/01/15 06:33:29;;;;;;;22.32;6.53;;;;;;;-0.84;89.37;100025.81;1734969;82;21004;-38
2022/01/15 06:35:54;;;;;;;17.60;4.95;;;;;;;-0.81;89.24;100031.43;1735008;82;20960;-38
2022/01/15 06:38:20;;;;;;;26.87;5.87;;;;;;;-0.81;89.29;100025.83;1735020;82;21511;-38
2022/01/15 06:40:46;;;;;;;40.00;13.35;;;;;;;-0.83;89.44;100023.67;1734922;82;21011;-38
2022/01/15 06:43:12;;;;;;;31.62;8.70;;;;;;;-0.83;89.32;100028.84;1734789;82;21019;-38
2022/01/15 06:45:38;;;;;;;30.70;8.68;;;;;;;-0.86;89.60;100033.98;1734914;82;20968;-38
2022/01/15 06:48:05;;;;;;;32.45;8.68;;;;;;;-0.82;89.54;100037.03;1734848;82;20999;-38
2022/01/15 06:50:30;;;;;;;31.00;8.10;;;;;;;-0.80;89.32;100043.47;1735119;82;21046;-38
2022/01/15 06:52:58;;;;;;;29.60;8.40;;;;;;;-0.83;89.35;100041.75;1734917;82;21011;-38
2022/01/15 06:55:24;;;;;;;26.30;7.55;;;;;;;-0.82;89.41;100040.91;1735045;83;20995;-38
2022/01/15 06:57:50;;;;;;;39.27;10.90;;;;;;;-0.84;89.38;100040.02;1734963;82;21488;-38
2022/01/15 07:00:17;;;;;;;40.78;11.57;;;;;;;-0.84;89.26;100045.17;1734922;83;21061;-38
2022/01/15 07:02:44;;;;;;;42.33;14.58;;;;;;;-0.88;89.44;100047.32;1734983;83;20988;-37
2022/01/15 07:05:10;;;;;;;57.98;22.77;;;;;;;-0.86;89.24;100047.33;1735112;83;21035;-38
2022/01/15 07:07:40;;;;;;;33.48;12.60;;;;;;;-0.86;89.33;100052.06;1735181;82;20998;-37
2022/01/15 07:10:05;;;;;;;30.75;7.67;;;;;;;-0.82;89.41;100046.48;1734462;82;21453;-38
2022/01/15 07:12:31;;;;;;;27.27;7.20;;;;;;;-0.87;89.27;100051.64;1735093;82;21531;-40
2022/01/15 07:14:56;;;;;;;27.77;7.05;;;;;;;-0.84;89.28;100050.34;1734887;82;21106;-42
2022/01/15 07:17:22;;;;;;;22.48;6.55;;;;;;;-0.86;89.22;100053.79;1735010;83;21465;-38
2022/01/15 07:19:51;;;;;;;32.00;8.68;;;;;;;-0.85;89.25;100056.82;1734966;82;21007;-38
2022/01/15 07:22:15;;;;;;;;;;;;;;;-0.85;89.41;100061.55;1737460;81;21063;-37
2022/01/15 07:24:41;;;;;;;27.55;6.85;;;;;;;-0.83;89.37;100065.43;1735143;83;20115;-38
2022/01/15 07:27:07;;;;;;;28.90;8.28;;;;;;;-0.88;89.44;100065.40;1735077;82;21007;-38
2022/01/15 07:29:36;;;;;;;25.00;7.85;;;;;;;-0.82;89.43;100069.31;1734998;82;21007;-38
2022/01/15 07:32:00;;;;;;;;;;;;;;;-0.81;89.33;100065.00;1737316;82;21500;-37
2022/01/15 07:34:26;;;;;;;33.83;9.83;;;;;;;-0.86;89.33;100071.42;1735068;82;20128;-38
2022/01/15 07:36:57;;;;;;;27.87;8.45;;;;;;;-0.83;89.42;100081.78;1735084;83;21902;-38
2022/01/15 07:39:23;;;;;;;25.85;6.87;;;;;;;-0.77;89.35;100072.75;1734968;82;21019;-38
2022/01/15 07:41:49;;;;;;;33.02;7.97;;;;;;;-0.76;89.29;100081.37;1735286;82;21011;-39
2022/01/15 07:44:15;;;;;;;47.15;15.25;;;;;;;-0.73;89.20;100076.64;1734864;82;21016;-38
2022/01/15 07:46:41;;;;;;;59.30;20.48;;;;;;;-0.73;89.23;100080.52;1735009;82;21051;-38
2022/01/15 07:49:08;;;;;;;42.53;15.63;;;;;;;-0.62;89.17;100081.41;1735003;83;20976;-38
2022/01/15 07:51:34;;;;;;;34.78;13.62;;;;;;;-0.64;89.08;100081.83;1735009;83;21046;-38
2022/01/15 07:54:00;;;;;;;51.13;19.67;;;;;;;-0.57;88.79;100073.68;1735303;82;21031;-38
2022/01/15 07:56:26;;;;;;;33.18;11.30;;;;;;;-0.57;88.79;100073.68;1735068;83;21469;-39
2022/01/15 07:58:52;;;;;;;34.98;12.75;;;;;;;-0.53;88.77;100080.13;1734991;83;21515;-39
2022/01/15 08:01:19;;;;;;;36.63;13.13;;;;;;;-0.47;88.70;100081.90;1735054;83;21521;-44
2022/01/15 08:03:46;;;;;;;29.27;10.15;;;;;;;-0.50;88.57;100082.73;1735098;82;20995;-38
2022/01/15 08:06:14;;;;;;;33.48;8.73;;;;;;;-0.47;88.51;100080.17;1735150;83;21411;-38
2022/01/15 08:08:40;;;;;;;;;;;;;;;-0.53;88.53;100084.01;1737676;83;21023;-39
2022/01/15 08:11:06;;;;;;;55.08;19.70;;;;;;;-0.53;88.66;100083.16;1735035;83;20139;-39
2022/01/15 08:13:32;;;;;;;88.62;31.70;;;;;;;-0.43;88.66;100088.79;1735016;83;21042;-40
2022/01/15 08:16:01;;;;;;;47.58;14.53;;;;;;;-0.45;88.57;100089.22;1735018;83;21515;-39
2022/01/15 08:18:28;;;;;;;103.95;38.13;;;;;;;-0.39;88.66;100099.12;1735039;83;21464;-39
2022/01/15 08:20:54;;;;;;;88.20;31.47;;;;;;;-0.30;88.66;100102.59;1735295;83;21031;-41
2022/01/15 08:23:21;;;;;;;53.27;19.93;;;;;;;-0.26;88.32;100099.16;1735390;83;20995;-39
2022/01/15 08:25:47;;;;;;;107.52;32.80;;;;;;;-0.21;88.24;100103.47;1734950;83;21034;-39
2022/01/15 08:28:13;;;;;;;31.27;10.98;;;;;;;-0.17;88.07;100105.63;1735002;83;21097;-39
2022/01/15 08:30:38;;;;;;;26.27;10.98;;;;;;;-0.13;87.85;100106.49;1735086;83;21527;-38
2022/01/15 08:33:04;;;;;;;25.82;8.90;;;;;;;-0.08;87.68;100105.63;1735074;83;21398;-39
2022/01/15 08:35:30;;;;;;;72.15;21.52;;;;;;;0.04;87.72;100109.09;1735080;82;21043;-39
2022/01/15 08:37:57;;;;;;;39.25;13.05;;;;;;;0.06;87.29;100104.36;1735062;83;21520;-39
2022/01/15 08:40:24;;;;;;;34.80;11.43;;;;;;;0.09;87.04;100109.55;1735153;83;20964;-40
2022/01/15 08:42:50;;;;;;;29.18;10.03;;;;;;;0.14;86.87;100104.36;1735227;82;21038;-39
2022/01/15 08:45:17;;;;;;;26.27;8.55;;;;;;;0.17;86.69;100116.02;1739762;82;20999;-43
2022/01/15 08:47:43;;;;;;;40.10;11.45;;;;;;;0.12;86.60;100104.36;1739886;82;21002;-39
2022/01/15 08:50:13;;;;;;;54.85;14.80;;;;;;;0.18;86.80;100112.55;1739755;82;21540;-39
2022/01/15 08:52:40;;;;;;;77.50;25.25;;;;;;;0.25;86.46;100105.66;1739710;82;21007;-39
2022/01/15 08:55:08;;;;;;;26.97;8.98;;;;;;;0.36;86.58;100106.50;1738859;82;21011;-37
2022/01/15 08:57:35;;;;;;;73.57;19.82;;;;;;;0.33;86.33;100112.56;1739697;82;21007;-39
2022/01/15 09:00:05;;;;;;;41.75;13.53;;;;;;;0.41;86.02;100102.20;1739698;82;20999;-39
2022/01/15 09:02:30;;;;;;;48.45;13.03;;;;;;;0.51;85.59;100114.68;1730899;81;21071;-39
2022/01/15 09:04:56;;;;;;;45.25;13.83;;;;;;;0.60;85.41;100116.41;1729090;83;21050;-39
2022/01/15 09:07:22;;;;;;;29.02;9.55;;;;;;;0.80;85.50;100118.55;1730186;81;20990;-39
2022/01/15 09:09:48;;;;;;;27.55;8.18;;;;;;;0.95;84.69;100117.20;1739612;82;21027;-39
2022/01/15 09:12:15;;;;;;;26.02;7.95;;;;;;;1.20;84.32;100118.42;1739535;82;21430;-40
2022/01/15 09:14:41;;;;;;;29.63;7.15;;;;;;;1.28;83.51;100117.94;1739698;82;21019;-39
2022/01/15 09:17:07;;;;;;;33.13;9.88;;;;;;;1.25;82.84;100111.91;1739263;81;21516;-40
2022/01/15 09:19:33;;;;;;;61.75;13.62;;;;;;;1.17;82.77;100100.73;1730698;83;21532;-39
2022/01/15 09:21:59;;;;;;;35.38;8.60;;;;;;;1.02;82.61;100098.63;1730785;83;21045;-39
2022/01/15 09:24:25;;;;;;;24.63;6.35;;;;;;;1.14;82.84;100111.51;1731030;83;21011;-38
2022/01/15 09:32:07;;;;;;;41.15;13.70;;;;;;;0.98;82.81;100133.15;1730796;83;21000;-37
2022/01/15 09:34:34;;;;;;;60.35;18.52;;;;;;;0.96;82.70;100120.64;1730764;82;21043;-38
2022/01/15 09:37:02;;;;;;;32.53;10.13;;;;;;;0.82;81.91;100125.88;1730857;82;21493;-39
2022/01/15 09:39:28;;;;;;;41.25;11.00;;;;;;;0.80;82.31;100113.78;1730760;82;21015;-39
2022/01/15 09:41:55;;;;;;;33.98;9.28;;;;;;;0.91;82.71;100114.20;1730653;82;21012;-38
2022/01/15 09:44:23;;;;;;;27.25;7.97;;;;;;;0.94;82.84;100124.97;1727951;82;21075;-39
2022/01/15 09:46:50;;;;;;;26.48;7.33;;;;;;;0.92;82.35;100125.41;1725301;83;20992;-38
2022/01/15 09:49:18;;;;;;;29.52;9.28;;;;;;;0.96;82.75;100119.34;1725977;83;21528;-38
2022/01/15 09:51:46;;;;;;;31.95;10.58;;;;;;;1.01;82.71;100115.02;1726052;83;21007;-39
2022/01/15 09:54:14;;;;;;;40.38;11.80;;;;;;;0.96;82.49;100125.82;1726120;83;21024;-38
2022/01/15 09:56:40;;;;;;;45.00;12.78;;;;;;;0.92;82.33;100128.00;1725967;83;21001;-38
2022/01/15 09:59:05;;;;;;;32.35;8.90;;;;;;;0.92;82.46;100129.29;1725636;83;20959;-38
2022/01/15 10:01:32;;;;;;;33.58;8.53;;;;;;;1.01;82.46;100129.70;1724836;83;21010;-38
2022/01/15 10:03:59;;;;;;;22.33;9.43;;;;;;;0.91;82.18;100131.03;1718861;83;21551;-38
2022/01/15 10:06:25;;;;;;;31.45;9.18;;;;;;;0.92;82.33;100131.87;1725095;82;21017;-38
2022/01/15 10:09:09;;;;;;;26.62;8.23;;;;;;;0.87;82.35;100127.99;1725932;83;20968;-38
2022/01/15 10:11:47;;;;;;;24.75;7.55;;;;;;;0.89;82.39;100124.11;1725014;83;20969;-38
2022/01/15 10:14:27;;;;;;;22.98;7.40;;;;;;;0.87;82.36;100120.67;1731591;83;21543;-38
2022/01/15 10:16:57;;;;;;;37.80;10.32;;;;;;;0.97;82.39;100112.46;1730659;82;21005;-38
2022/01/15 10:19:26;;;;;;;52.17;15.05;;;;;;;0.87;82.29;100116.78;1733849;83;21021;-38
2022/01/15 10:22:17;;;;;;;30.55;10.60;;;;;;;0.89;82.27;100112.05;1734772;83;21474;-39
2022/01/15 10:24:59;;;;;;;28.12;9.40;;;;;;;0.84;82.44;100117.66;1733295;82;20955;-39
2022/01/15 10:27:41;;;;;;;38.45;11.30;;;;;;;0.91;82.21;100115.90;1725665;83;20957;-39
2022/01/15 10:30:21;;;;;;;40.30;9.75;;;;;;;0.88;82.03;100122.41;1725334;83;21003;-38
2022/01/15 10:33:05;;;;;;;27.82;7.22;;;;;;;0.96;82.37;100112.88;1726082;83;20976;-39
2022/01/15 10:35:41;;;;;;;29.55;9.08;;;;;;;0.96;82.12;100114.16;1726120;83;21012;-39
2022/01/15 10:38:16;;;;;;;25.30;7.25;;;;;;;1.02;82.47;100111.58;1725486;83;21517;-39
2022/01/15 10:40:55;;;;;;;23.05;7.05;;;;;;;0.98;82.07;100106.39;1726090;83;21886;-38
2022/01/15 10:43:21;;;;;;;37.88;13.58;;;;;;;1.08;81.97;100111.55;1725875;83;22021;-39
2022/01/15 10:46:01;;;;;;;33.33;9.45;;;;;;;1.12;82.00;100108.06;1707674;83;21028;-39
2022/01/15 10:48:33;;;;;;;29.65;10.10;;;;;;;1.19;81.87;100119.72;1726066;83;21032;-38
2022/01/15 10:51:06;;;;;;;37.35;11.45;;;;;;;1.20;81.60;100118.83;1725590;81;21501;-38
2022/01/15 10:53:44;;;;;;;43.08;9.95;;;;;;;1.20;81.34;100121.02;1725954;81;20981;-38
2022/01/15 10:56:13;;;;;;;35.63;9.43;;;;;;;1.27;81.50;100117.95;1726094;83;20992;-38
2022/01/15 10:58:42;;;;;;;24.23;8.08;;;;;;;1.27;81.03;100120.09;1726077;83;20984;-38
2022/01/15 11:01:14;;;;;;;18.25;6.87;;;;;;;1.31;80.72;100121.83;1726063;83;21044;-38
2022/01/15 11:03:45;;;;;;;23.50;7.60;;;;;;;1.38;80.72;100116.61;1707584;83;21450;-39
2022/01/15 11:06:12;;;;;;;26.37;8.55;;;;;;;1.37;80.35;100118.34;1726082;83;21011;-39
2022/01/15 11:08:44;;;;;;;24.15;7.40;;;;;;;1.47;80.86;100120.00;1726102;83;21007;-38
2022/01/15 11:11:14;;;;;;;22.87;8.15;;;;;;;1.50;80.33;100120.00;1726103;83;21008;-38
2022/01/15 11:13:45;;;;;;;33.92;9.68;;;;;;;1.46;79.91;100126.08;1726124;83;21051;-38
2022/01/15 11:16:14;;;;;;;48.48;11.22;;;;;;;1.45;79.58;100123.48;1726148;83;21023;-38
2022/01/15 11:18:45;;;;;;;32.40;8.53;;;;;;;1.46;79.45;100114.86;1726015;83;21043;-39
2022/01/15 11:21:15;;;;;;;51.13;21.05;;;;;;;1.45;79.20;100123.05;1725625;83;21521;-38
2022/01/15 11:23:43;;;;;;;40.30;14.18;;;;;;;1.50;79.31;100109.62;1726070;83;21032;-39
2022/01/15 11:26:12;;;;;;;;;;;;;;;1.50;79.20;100110.08;1728684;83;20999;-39
2022/01/15 11:28:39;;;;;;;29.75;10.03;;;;;;;1.48;79.09;100113.11;1726073;83;20112;-40
2022/01/15 11:31:11;;;;;;;30.88;8.68;;;;;;;1.45;79.16;100111.37;1726187;83;21011;-39
2022/01/15 11:33:46;;;;;;;20.23;7.62;;;;;;;1.50;79.05;100120.00;1707597;83;21462;-39
2022/01/15 11:36:40;;;;;;;19.42;7.20;;;;;;;1.56;78.70;100106.58;1725994;82;21535;-39
2022/01/15 11:39:11;;;;;;;28.65;7.83;;;;;;;1.58;78.35;100111.32;1724780;82;21051;-39
2022/01/15 11:41:45;;;;;;;24.18;7.28;;;;;;;1.54;77.92;100112.63;1724732;82;21595;-39
2022/01/15 11:44:29;;;;;;;33.02;9.40;;;;;;;1.65;78.83;100115.61;1725847;83;21028;-38
2022/01/15 11:47:00;;;;;;;24.60;8.08;;;;;;;1.68;78.20;100113.00;1726037;82;20980;-39
2022/01/15 11:49:40;;;;;;;37.60;9.80;;;;;;;1.67;77.68;100114.75;1724280;83;20969;-39
2022/01/15 11:52:14;;;;;;;23.85;7.83;;;;;;;1.66;77.18;100116.89;1725810;83;20988;-39
2022/01/15 11:55:05;;;;;;;25.77;7.83;;;;;;;1.71;77.06;100113.84;1725583;83;21059;-39
2022/01/15 11:57:38;;;;;;;23.07;7.90;;;;;;;1.78;77.17;100115.95;1724676;83;21592;-39
2022/01/15 12:00:10;;;;;;;20.65;6.70;;;;;;;1.75;76.74;100105.61;1723902;83;21008;-38